LTAF

Adana Şakirpaşa Airport

Airport
ICAO code
LTAF
IATA Code
ADA
Summary
ICAO Region
EUR
ICAO Territory
Location

Adana, Adana

Serving
Adana
Elevation
65 ft
Coordinates
36° 58' 57" N , 35° 16' 59" E
KCC
Airport GND
Foreign Object Debris
Metar
LTAF 201650Z 20007KT 9999 SCT035 BKN100 19/15 Q1009 NOSIG

Description

Military/Civil airport serving southern Turkey.

Climatology

Dry-summer subtropical ”Mediterranean" climate (Köppen climate classification Csa) - characterized by hot, dry summers and mild winters. During the summer, subtropical high pressure cells dominate, making rainfall unlikely except for the occasional thunderstorm. In the winter, periodic storms bring rain.

Runways

Designator Length Width Surface Rops
5/23 2750 45 ASP Yes/Yes

Airport map

Aerial View

SKYbrary Partners:

Safety knowledge contributed by: